Ternholm — OWIM2 — position and weather

sailwx.info

Track history (hours):
 
Tides and Currents Weather Stations Pressure Air Temp Water Temp Dewpoint Dewpoint Depression Visibility Wind Speed Wind Dir Waves Ship Positions

Ternholm

Last reported at 2017-Sep-20 13:50 UTC. Time now 2017-Sep-20 23:59 UTC.
Position N 59°59' E 024°01'.

Length 141 m; draft 8.9 m.

Type: Tanker. MMSI: 219076000.

Date/timePositionNaut miles runAvg speedWind from/ knotsBaromVisibWave heightAir tempDewpointWater temp
2017-Sep-20 13:50N 59°59' E 024°01'3 8.6
2017-Sep-20 13:28N 59°58' E 024°06'510.1
2017-Sep-20 12:57N 59°53' E 024°11'510.5
2017-Sep-20 12:30N 59°49' E 024°06'711.4
2017-Sep-20 11:55N 59°44' E 023°58'511.6
2017-Sep-20 11:27N 59°40' E 023°50'511.7
2017-Sep-20 11:00N 59°37' E 023°41'611.6
2017-Sep-20 10:30N 59°35' E 023°31'611.6
2017-Sep-20 09:59N 59°33' E 023°20'611.7
2017-Sep-20 09:30N 59°31' E 023°09'29311.5
2017-Sep-19 07:59N 56°02' E 016°44'511.7
2017-Sep-19 07:30N 55°59' E 016°36'611.7
2017-Sep-19 07:01N 55°56' E 016°27'611.7
2017-Sep-19 06:31N 55°53' E 016°18'611.7
2017-Sep-19 06:00N 55°50' E 016°08'611.7
2017-Sep-19 05:30N 55°47' E 015°59'611.6
2017-Sep-19 05:00N 55°44' E 015°50'611.7
2017-Sep-19 04:30N 55°42' E 015°41'611.7
2017-Sep-19 04:01N 55°39' E 015°32'611.6
2017-Sep-19 03:30N 55°36' E 015°23'611.6
2017-Sep-19 03:00N 55°33' E 015°14'611.6
2017-Sep-19 02:30N 55°30' E 015°05'611.6
2017-Sep-19 02:00N 55°28' E 014°56'611.7
2017-Sep-19 01:30N 55°26' E 014°46'611.4
2017-Sep-19 01:00N 55°23' E 014°38'611.6
2017-Sep-19 00:30N 55°18' E 014°31'611.5
2017-Sep-19 00:00N 55°13' E 014°26'611.5
2017-Sep-18 23:31N 55°09' E 014°19'611.5
2017-Sep-18 23:00N 55°04' E 014°13'611.0
2017-Sep-18 22:27N 55°00' E 014°05'4011.7
2017-Sep-18 19:02N 54°48' E 012°59'011.5
2017-Sep-18 19:00N 54°48' E 012°59'611.7
2017-Sep-18 18:30N 54°46' E 012°49'611.4
2017-Sep-18 18:00N 54°44' E 012°40'3810.0
2017-Sep-18 14:12N 54°25' E 011°43'211.2
2017-Sep-18 14:00N 54°27' E 011°41'611.5
2017-Sep-18 13:31N 54°29' E 011°32'611.2
2017-Sep-18 13:00N 54°32' E 011°23'611.1
2017-Sep-18 12:31N 54°34' E 011°14'510.8
2017-Sep-18 12:00N 54°36' E 011°06'510.9
2017-Sep-18 11:30N 54°39' E 010°58'510.6
2017-Sep-18 11:00N 54°43' E 010°51'510.6
2017-Sep-18 10:30N 54°48' E 010°51'5 9.9
2017-Sep-18 10:00N 54°53' E 010°53'5 9.5
2017-Sep-18 09:31N 54°57' E 010°56'5 9.6
2017-Sep-18 09:00N 55°01' E 011°01'510.2
2017-Sep-18 08:31N 55°06' E 011°02'5 9.8
2017-Sep-18 08:00N 55°11' E 011°03'5 9.4
2017-Sep-18 07:30N 55°15' E 011°05'510.5
2017-Sep-18 06:59N 55°21' E 011°02'710.3
2017-Sep-18 06:19N 55°27' E 010°56'8610.0
2017-Sep-17 21:44N 56°47' E 011°52'910.6
2017-Sep-17 20:53N 56°55' E 011°45'511.1
2017-Sep-17 20:29N 56°59' E 011°43'511.0
2017-Sep-17 20:00N 57°04' E 011°39'911.0
2017-Sep-17 19:11N 57°13' E 011°33'211.1
2017-Sep-17 19:00N 57°15' E 011°32'611.5
2017-Sep-17 18:30N 57°20' E 011°32'611.7
2017-Sep-17 18:00N 57°26' E 011°33'611.5
2017-Sep-17 17:31N 57°32' E 011°35'611.1
2017-Sep-17 17:00N 57°37' E 011°39'510.1
2017-Sep-17 16:30N 57°40' E 011°47'3 6.7
2017-Sep-17 16:00N 57°41' E 011°52'0 0.0
2017-Sep-17 15:28N 57°41' E 011°52'0 0.0
2017-Sep-17 14:58N 57°41' E 011°52'0 0.0
2017-Sep-17 14:28N 57°41' E 011°52'0 0.0
2017-Sep-17 13:58N 57°41' E 011°52'0 0.0
2017-Sep-17 13:28N 57°41' E 011°52'0 0.0
2017-Sep-17 12:58N 57°41' E 011°52'0 0.0
2017-Sep-17 12:28N 57°41' E 011°52'0 0.0
2017-Sep-17 11:58N 57°41' E 011°52'0 0.0
2017-Sep-17 11:28N 57°41' E 011°52'0 0.0
2017-Sep-17 10:58N 57°41' E 011°52'0 0.0
2017-Sep-17 10:28N 57°41' E 011°52'0 0.0
2017-Sep-17 09:58N 57°41' E 011°52'0 0.0
2017-Sep-17 09:31N 57°41' E 011°52'0 0.0
2017-Sep-17 09:01N 57°41' E 011°52'0 0.0
2017-Sep-17 08:30N 57°41' E 011°52'0 0.0
2017-Sep-17 08:00N 57°41' E 011°52'0 0.0
2017-Sep-17 07:30N 57°41' E 011°52'0 0.0
2017-Sep-17 07:00N 57°41' E 011°52'0 0.0
2017-Sep-17 06:30N 57°41' E 011°52'0 0.0
2017-Sep-17 06:00N 57°41' E 011°52'0 0.0
2017-Sep-17 05:30N 57°41' E 011°52'0 0.0
2017-Sep-17 05:00N 57°41' E 011°52'0 0.0
2017-Sep-17 04:30N 57°41' E 011°52'0 0.0
2017-Sep-17 04:00N 57°41' E 011°52'0 0.0
2017-Sep-17 03:30N 57°41' E 011°52'0 0.0
2017-Sep-17 03:00N 57°41' E 011°52'0 0.0
2017-Sep-17 02:30N 57°41' E 011°52'0 0.0
2017-Sep-17 02:00N 57°41' E 011°52'0 0.0
2017-Sep-17 01:30N 57°41' E 011°52'0 0.0
2017-Sep-17 01:00N 57°41' E 011°52'0 0.0
2017-Sep-17 00:30N 57°41' E 011°52'0 0.0
2017-Sep-17 00:00N 57°41' E 011°52'0 0.0
2017-Sep-16 23:30N 57°41' E 011°52'0 0.0
2017-Sep-16 23:00N 57°41' E 011°52'0 0.0
2017-Sep-16 22:30N 57°41' E 011°52'0 0.0
2017-Sep-16 22:00N 57°41' E 011°52'0 0.0
2017-Sep-16 21:30N 57°41' E 011°52'0 0.0
2017-Sep-16 21:00N 57°41' E 011°52'0 0.4
2017-Sep-16 20:30N 57°41' E 011°52'3 6.8
2017-Sep-16 20:01N 57°40' E 011°47'510.0
2017-Sep-16 19:30N 57°36' E 011°40'1 1.7
2017-Sep-16 18:48N 57°36' E 011°42'0 0.0
2017-Sep-16 18:30N 57°36' E 011°42'0 0.0
2017-Sep-16 18:00N 57°36' E 011°42'0 0.0
2017-Sep-16 17:30N 57°36' E 011°42'0 0.0
2017-Sep-16 16:57N 57°36' E 011°42'0 0.0
2017-Sep-16 16:30N 57°36' E 011°42'0 0.1
2017-Sep-16 16:00N 57°36' E 011°42'0 0.1
2017-Sep-16 15:28N 57°36' E 011°42'4 8.2
2017-Sep-16 15:00N 57°32' E 011°39'713.5
2017-Sep-16 14:31N 57°26' E 011°40'713.3
2017-Sep-16 13:57N 57°19' E 011°45'6011.7
2017-Sep-16 08:48N 56°22' E 012°21'411.6
2017-Sep-16 08:27N 56°18' E 012°22'511.7
2017-Sep-16 08:00N 56°13' E 012°26'611.6
2017-Sep-16 07:30N 56°08' E 012°31'611.7
2017-Sep-16 07:00N 56°04' E 012°38'611.5
2017-Sep-16 06:30N 55°58' E 012°42'611.2
2017-Sep-16 06:00N 55°53' E 012°45'611.5
2017-Sep-16 05:30N 55°47' E 012°48'611.7
2017-Sep-16 05:00N 55°42' E 012°53'5 9.8
2017-Sep-16 04:30N 55°38' E 012°55'510.5
2017-Sep-16 04:00N 55°34' E 012°49'4 8.6
2017-Sep-16 03:30N 55°31' E 012°44'510.8
2017-Sep-16 03:01N 55°26' E 012°42'611.8
2017-Sep-16 02:30N 55°20' E 012°40'510.6
2017-Sep-16 02:00N 55°17' E 012°48'511.1
2017-Sep-16 01:31N 55°16' E 012°57'611.4
2017-Sep-16 01:00N 55°15' E 013°07'611.5
2017-Sep-16 00:30N 55°15' E 013°17'611.6
2017-Sep-15 23:59N 55°15' E 013°28'611.7
2017-Sep-15 23:28N 55°14' E 013°38'1611.3
2017-Sep-15 22:03N 55°14' E 014°06'110.7
2017-Sep-15 21:56N 55°14' E 014°08'510.2
2017-Sep-15 21:26N 55°15' E 014°17'610.2
2017-Sep-15 20:50N 55°20' E 014°24'411.1
2017-Sep-15 20:28N 55°23' E 014°28'711.4
2017-Sep-15 19:49N 55°28' E 014°38'411.0
2017-Sep-15 19:28N 55°30' E 014°43'510.5
2017-Sep-15 19:00N 55°32' E 014°51'611.0
2017-Sep-15 18:27N 55°35' E 014°60'511.4
2017-Sep-15 18:00N 55°38' E 015°08'611.2
2017-Sep-15 17:31N 55°41' E 015°16'611.2
2017-Sep-15 17:00N 55°43' E 015°25'611.1
2017-Sep-15 16:30N 55°46' E 015°34'611.2
2017-Sep-15 16:00N 55°48' E 015°43'510.9
2017-Sep-15 15:30N 55°51' E 015°51'611.2
2017-Sep-15 15:00N 55°54' E 015°60'611.4
2017-Sep-15 14:31N 55°57' E 016°09'611.6
2017-Sep-15 14:01N 55°60' E 016°18'611.6
2017-Sep-15 13:31N 56°03' E 016°27'611.7
2017-Sep-15 13:00N 56°06' E 016°35'611.7
2017-Sep-15 12:30N 56°09' E 016°44'611.5
2017-Sep-15 12:01N 56°15' E 016°48'611.7
2017-Sep-15 11:30N 56°20' E 016°52'  
Track history (hours):
 
Tides and Currents Weather Stations Pressure Air Temp Water Temp Dewpoint Dewpoint Depression Visibility Wind Speed Wind Dir Waves Ship Positions

Ternholm

Last reported at 2017-Sep-20 13:50 UTC. Time now 2017-Sep-20 23:59 UTC.
Position N 59°59' E 024°01'.

Length 141 m; draft 8.9 m.

Type: Tanker. MMSI: 219076000.

Date/timePositionNaut miles runAvg speedWind from/ knotsBaromVisibWave heightAir tempDewpointWater temp
2017-Sep-20 13:50N 59°59' E 024°01'3 8.6
2017-Sep-20 13:28N 59°58' E 024°06'510.1
2017-Sep-20 12:57N 59°53' E 024°11'510.5
2017-Sep-20 12:30N 59°49' E 024°06'711.4
2017-Sep-20 11:55N 59°44' E 023°58'511.6
2017-Sep-20 11:27N 59°40' E 023°50'511.7
2017-Sep-20 11:00N 59°37' E 023°41'611.6
2017-Sep-20 10:30N 59°35' E 023°31'611.6
2017-Sep-20 09:59N 59°33' E 023°20'611.7
2017-Sep-20 09:30N 59°31' E 023°09'29311.5
2017-Sep-19 07:59N 56°02' E 016°44'511.7
2017-Sep-19 07:30N 55°59' E 016°36'611.7
2017-Sep-19 07:01N 55°56' E 016°27'611.7
2017-Sep-19 06:31N 55°53' E 016°18'611.7
2017-Sep-19 06:00N 55°50' E 016°08'611.7
2017-Sep-19 05:30N 55°47' E 015°59'611.6
2017-Sep-19 05:00N 55°44' E 015°50'611.7
2017-Sep-19 04:30N 55°42' E 015°41'611.7
2017-Sep-19 04:01N 55°39' E 015°32'611.6
2017-Sep-19 03:30N 55°36' E 015°23'611.6
2017-Sep-19 03:00N 55°33' E 015°14'611.6
2017-Sep-19 02:30N 55°30' E 015°05'611.6
2017-Sep-19 02:00N 55°28' E 014°56'611.7
2017-Sep-19 01:30N 55°26' E 014°46'611.4
2017-Sep-19 01:00N 55°23' E 014°38'611.6
2017-Sep-19 00:30N 55°18' E 014°31'611.5
2017-Sep-19 00:00N 55°13' E 014°26'611.5
2017-Sep-18 23:31N 55°09' E 014°19'611.5
2017-Sep-18 23:00N 55°04' E 014°13'611.0
2017-Sep-18 22:27N 55°00' E 014°05'4011.7
2017-Sep-18 19:02N 54°48' E 012°59'011.5
2017-Sep-18 19:00N 54°48' E 012°59'611.7
2017-Sep-18 18:30N 54°46' E 012°49'611.4
2017-Sep-18 18:00N 54°44' E 012°40'3810.0
2017-Sep-18 14:12N 54°25' E 011°43'211.2
2017-Sep-18 14:00N 54°27' E 011°41'611.5
2017-Sep-18 13:31N 54°29' E 011°32'611.2
2017-Sep-18 13:00N 54°32' E 011°23'611.1
2017-Sep-18 12:31N 54°34' E 011°14'510.8
2017-Sep-18 12:00N 54°36' E 011°06'510.9
2017-Sep-18 11:30N 54°39' E 010°58'510.6
2017-Sep-18 11:00N 54°43' E 010°51'510.6
2017-Sep-18 10:30N 54°48' E 010°51'5 9.9
2017-Sep-18 10:00N 54°53' E 010°53'5 9.5
2017-Sep-18 09:31N 54°57' E 010°56'5 9.6
2017-Sep-18 09:00N 55°01' E 011°01'510.2
2017-Sep-18 08:31N 55°06' E 011°02'5 9.8
2017-Sep-18 08:00N 55°11' E 011°03'5 9.4
2017-Sep-18 07:30N 55°15' E 011°05'510.5
2017-Sep-18 06:59N 55°21' E 011°02'710.3
2017-Sep-18 06:19N 55°27' E 010°56'8610.0
2017-Sep-17 21:44N 56°47' E 011°52'910.6
2017-Sep-17 20:53N 56°55' E 011°45'511.1
2017-Sep-17 20:29N 56°59' E 011°43'511.0
2017-Sep-17 20:00N 57°04' E 011°39'911.0
2017-Sep-17 19:11N 57°13' E 011°33'211.1
2017-Sep-17 19:00N 57°15' E 011°32'611.5
2017-Sep-17 18:30N 57°20' E 011°32'611.7
2017-Sep-17 18:00N 57°26' E 011°33'611.5
2017-Sep-17 17:31N 57°32' E 011°35'611.1
2017-Sep-17 17:00N 57°37' E 011°39'510.1
2017-Sep-17 16:30N 57°40' E 011°47'3 6.7
2017-Sep-17 16:00N 57°41' E 011°52'0 0.0
2017-Sep-17 15:28N 57°41' E 011°52'0 0.0
2017-Sep-17 14:58N 57°41' E 011°52'0 0.0
2017-Sep-17 14:28N 57°41' E 011°52'0 0.0
2017-Sep-17 13:58N 57°41' E 011°52'0 0.0
2017-Sep-17 13:28N 57°41' E 011°52'0 0.0
2017-Sep-17 12:58N 57°41' E 011°52'0 0.0
2017-Sep-17 12:28N 57°41' E 011°52'0 0.0
2017-Sep-17 11:58N 57°41' E 011°52'0 0.0
2017-Sep-17 11:28N 57°41' E 011°52'0 0.0
2017-Sep-17 10:58N 57°41' E 011°52'0 0.0
2017-Sep-17 10:28N 57°41' E 011°52'0 0.0
2017-Sep-17 09:58N 57°41' E 011°52'0 0.0
2017-Sep-17 09:31N 57°41' E 011°52'0 0.0
2017-Sep-17 09:01N 57°41' E 011°52'0 0.0
2017-Sep-17 08:30N 57°41' E 011°52'0 0.0
2017-Sep-17 08:00N 57°41' E 011°52'0 0.0
2017-Sep-17 07:30N 57°41' E 011°52'0 0.0
2017-Sep-17 07:00N 57°41' E 011°52'0 0.0
2017-Sep-17 06:30N 57°41' E 011°52'0 0.0
2017-Sep-17 06:00N 57°41' E 011°52'0 0.0
2017-Sep-17 05:30N 57°41' E 011°52'0 0.0
2017-Sep-17 05:00N 57°41' E 011°52'0 0.0
2017-Sep-17 04:30N 57°41' E 011°52'0 0.0
2017-Sep-17 04:00N 57°41' E 011°52'0 0.0
2017-Sep-17 03:30N 57°41' E 011°52'0 0.0
2017-Sep-17 03:00N 57°41' E 011°52'0 0.0
2017-Sep-17 02:30N 57°41' E 011°52'0 0.0
2017-Sep-17 02:00N 57°41' E 011°52'0 0.0
2017-Sep-17 01:30N 57°41' E 011°52'0 0.0
2017-Sep-17 01:00N 57°41' E 011°52'0 0.0
2017-Sep-17 00:30N 57°41' E 011°52'0 0.0
2017-Sep-17 00:00N 57°41' E 011°52'0 0.0
2017-Sep-16 23:30N 57°41' E 011°52'0 0.0
2017-Sep-16 23:00N 57°41' E 011°52'0 0.0
2017-Sep-16 22:30N 57°41' E 011°52'0 0.0
2017-Sep-16 22:00N 57°41' E 011°52'0 0.0
2017-Sep-16 21:30N 57°41' E 011°52'0 0.0
2017-Sep-16 21:00N 57°41' E 011°52'0 0.4
2017-Sep-16 20:30N 57°41' E 011°52'3 6.8
2017-Sep-16 20:01N 57°40' E 011°47'510.0
2017-Sep-16 19:30N 57°36' E 011°40'1 1.7
2017-Sep-16 18:48N 57°36' E 011°42'0 0.0
2017-Sep-16 18:30N 57°36' E 011°42'0 0.0
2017-Sep-16 18:00N 57°36' E 011°42'0 0.0
2017-Sep-16 17:30N 57°36' E 011°42'0 0.0
2017-Sep-16 16:57N 57°36' E 011°42'0 0.0
2017-Sep-16 16:30N 57°36' E 011°42'0 0.1
2017-Sep-16 16:00N 57°36' E 011°42'0 0.1
2017-Sep-16 15:28N 57°36' E 011°42'4 8.2
2017-Sep-16 15:00N 57°32' E 011°39'713.5
2017-Sep-16 14:31N 57°26' E 011°40'713.3
2017-Sep-16 13:57N 57°19' E 011°45'6011.7
2017-Sep-16 08:48N 56°22' E 012°21'411.6
2017-Sep-16 08:27N 56°18' E 012°22'511.7
2017-Sep-16 08:00N 56°13' E 012°26'611.6
2017-Sep-16 07:30N 56°08' E 012°31'611.7
2017-Sep-16 07:00N 56°04' E 012°38'611.5
2017-Sep-16 06:30N 55°58' E 012°42'611.2
2017-Sep-16 06:00N 55°53' E 012°45'611.5
2017-Sep-16 05:30N 55°47' E 012°48'611.7
2017-Sep-16 05:00N 55°42' E 012°53'5 9.8
2017-Sep-16 04:30N 55°38' E 012°55'510.5
2017-Sep-16 04:00N 55°34' E 012°49'4 8.6
2017-Sep-16 03:30N 55°31' E 012°44'510.8
2017-Sep-16 03:01N 55°26' E 012°42'611.8
2017-Sep-16 02:30N 55°20' E 012°40'510.6
2017-Sep-16 02:00N 55°17' E 012°48'511.1
2017-Sep-16 01:31N 55°16' E 012°57'611.4
2017-Sep-16 01:00N 55°15' E 013°07'611.5
2017-Sep-16 00:30N 55°15' E 013°17'611.6
2017-Sep-15 23:59N 55°15' E 013°28'611.7
2017-Sep-15 23:28N 55°14' E 013°38'1611.3
2017-Sep-15 22:03N 55°14' E 014°06'110.7
2017-Sep-15 21:56N 55°14' E 014°08'510.2
2017-Sep-15 21:26N 55°15' E 014°17'610.2
2017-Sep-15 20:50N 55°20' E 014°24'411.1
2017-Sep-15 20:28N 55°23' E 014°28'711.4
2017-Sep-15 19:49N 55°28' E 014°38'411.0
2017-Sep-15 19:28N 55°30' E 014°43'510.5
2017-Sep-15 19:00N 55°32' E 014°51'611.0
2017-Sep-15 18:27N 55°35' E 014°60'511.4
2017-Sep-15 18:00N 55°38' E 015°08'611.2
2017-Sep-15 17:31N 55°41' E 015°16'611.2
2017-Sep-15 17:00N 55°43' E 015°25'611.1
2017-Sep-15 16:30N 55°46' E 015°34'611.2
2017-Sep-15 16:00N 55°48' E 015°43'510.9
2017-Sep-15 15:30N 55°51' E 015°51'611.2
2017-Sep-15 15:00N 55°54' E 015°60'611.4
2017-Sep-15 14:31N 55°57' E 016°09'611.6
2017-Sep-15 14:01N 55°60' E 016°18'611.6
2017-Sep-15 13:31N 56°03' E 016°27'611.7
2017-Sep-15 13:00N 56°06' E 016°35'611.7
2017-Sep-15 12:30N 56°09' E 016°44'611.5
2017-Sep-15 12:01N 56°15' E 016°48'611.7
2017-Sep-15 11:30N 56°20' E 016°52'  

Dump ship's entire track history